Log Lane Village, CO

12:32 AM MDT on September 22, 2014 (GMT -0600)
Fort Morgan | Change Station
CLOSE
Current Station
Airport
Location: Fort Morgan,
Elevation: 4570 ft
Nearby Weather Stations

Elev 4570 ft 40.33 °N, 103.80 °W | Updated 17 minutes ago

Mostly Cloudy
Mostly Cloudy
61 °F
Feels Like 61 °F
N
9
Wind Variable Wind from SSE

Today
High -- | Low -- °F
--% Chance of Precip.
Yesterday
High -- | Low -- °F
Precip. -- in
6:42 AM 6:52 PM
Waning Crescent, 4% visible
Pressure 30.30 in
Visibility 10.0 miles
Clouds Scattered Clouds 9000 ft
Dew Point 39 °F
Humidity 45%
Rainfall 0.00 in
Snow Depth Not available.
UV 0 out of 12
Pollen 6.60 out of 12
Air Quality Not available.
Flu Activity Not available.
METAR KFMM 220615Z AUTO 16008KT 10SM SCT090 16/04 A3030 RMK AO2 T01590040

More Conditions Fewer Conditions

Pressure 30.30 in
Visibility 10.0 miles
Clouds Scattered Clouds 9000 ft
Dew Point 39 °F
Humidity 45%
Rainfall 0.00 in
Snow Depth Not available.
UV 0 out of 12
Pollen 6.60 out of 12
Air Quality Not available.
Flu Activity Not available.
METAR KFMM 220615Z AUTO 16008KT 10SM SCT090 16/04 A3030 RMK AO2 T01590040

More Conditions Fewer Conditions

10-Day Weather Forecast

Almanac

Astronomy

Sep. 22, 2014 Rise Set
Actual Time 6:42 AM MDT 6:52 PM MDT
Civil Twilight 6:15 AM MDT 7:19 PM MDT
Nautical Twilight 5:43 AM MDT 7:51 PM MDT
Astronomical Twilight 5:11 AM MDT 8:23 PM MDT
Moon 5:13 AM MDT 6:01 PM MDT
Length of Visible Light 13h 03m
Length of Day
12h 09m
Tomorrow will be 2m 38s shorter.
Waning Crescent, 4% of the Moon is Illuminated
Today
Waning Crescent
Sep 24
New
Oct 1
First Quarter
Oct 8
Full
Oct 15
Last Quarter

Today's Extremes

State Highs State Lows

Community

WunderPhotos

Upload Photos

1,755,392 photos uploaded!

Nearby

Snow Depth

Station Depth Elevation
Kiln 1 in 9600 ft
Overland Reservoir 0 in 9880 ft
Rabbit Ears 1 in 9400 ft
Willow Creek Pass 0 in 9540 ft
Dry Lake 0 in 8400 ft

Earthquake Activity

City Distance Mag. Time & Date
No recent earthquake activity has been reported nearby.
Minimum magnitude displayed is 2.5.

Coastal Water Temperatures

Place Temperature
No Stations Reporting

Nearby Weather Stations